sensor_id;sensor_type;location;lat;lon;timestamp;pressure;altitude;pressure_sealevel;temperature;humidity
60319;BME280;46163;52.306;5.634;2022-11-20T00:02:09;101278.06;;;14.83;56.41
60319;BME280;46163;52.306;5.634;2022-11-20T00:04:35;101278.53;;;14.80;56.65
60319;BME280;46163;52.306;5.634;2022-11-20T00:07:00;101282.25;;;14.79;56.58
60319;BME280;46163;52.306;5.634;2022-11-20T00:09:26;101269.25;;;14.76;56.72
60319;BME280;46163;52.306;5.634;2022-11-20T00:11:52;101264.13;;;14.74;56.61
60319;BME280;46163;52.306;5.634;2022-11-20T00:14:21;101261.06;;;14.70;56.50
60319;BME280;46163;52.306;5.634;2022-11-20T00:16:47;101251.41;;;14.69;56.59
60319;BME280;46163;52.306;5.634;2022-11-20T00:19:12;101253.69;;;14.66;56.62
60319;BME280;46163;52.306;5.634;2022-11-20T00:21:38;101256.56;;;14.64;56.56
60319;BME280;46163;52.306;5.634;2022-11-20T00:24:04;101259.91;;;14.60;56.45
60319;BME280;46163;52.306;5.634;2022-11-20T00:26:29;101259.06;;;14.59;56.53
60319;BME280;46163;52.306;5.634;2022-11-20T00:28:58;101257.66;;;14.57;56.67
60319;BME280;46163;52.306;5.634;2022-11-20T00:31:23;101259.75;;;14.55;56.51
60319;BME280;46163;52.306;5.634;2022-11-20T00:33:50;101260.38;;;14.50;56.52
60319;BME280;46163;52.306;5.634;2022-11-20T00:36:18;101264.72;;;14.51;56.52
60319;BME280;46163;52.306;5.634;2022-11-20T00:38:43;101261.41;;;14.49;56.67
60319;BME280;46163;52.306;5.634;2022-11-20T00:41:11;101260.22;;;14.45;56.54
60319;BME280;46163;52.306;5.634;2022-11-20T00:43:37;101253.41;;;14.42;56.41
60319;BME280;46163;52.306;5.634;2022-11-20T00:46:07;101258.97;;;14.41;56.38
60319;BME280;46163;52.306;5.634;2022-11-20T00:48:32;101254.03;;;14.38;56.62
60319;BME280;46163;52.306;5.634;2022-11-20T00:50:59;101261.06;;;14.32;56.63
60319;BME280;46163;52.306;5.634;2022-11-20T00:53:25;101257.38;;;14.33;56.65
60319;BME280;46163;52.306;5.634;2022-11-20T00:56:02;101260.47;;;14.30;56.59
60319;BME280;46163;52.306;5.634;2022-11-20T00:58:30;101254.75;;;14.27;56.51
60319;BME280;46163;52.306;5.634;2022-11-20T01:01:03;101262.78;;;14.27;56.35
60319;BME280;46163;52.306;5.634;2022-11-20T01:03:38;101259.50;;;14.25;56.53
60319;BME280;46163;52.306;5.634;2022-11-20T01:06:15;101253.72;;;14.21;56.43
60319;BME280;46163;52.306;5.634;2022-11-20T01:08:41;101258.25;;;14.21;56.59
60319;BME280;46163;52.306;5.634;2022-11-20T01:11:12;101256.84;;;14.18;56.42
60319;BME280;46163;52.306;5.634;2022-11-20T01:13:38;101249.22;;;14.15;56.47
60319;BME280;46163;52.306;5.634;2022-11-20T01:16:23;101251.28;;;14.13;56.55
60319;BME280;46163;52.306;5.634;2022-11-20T01:18:51;101248.84;;;14.11;56.71
60319;BME280;46163;52.306;5.634;2022-11-20T01:21:26;101242.88;;;14.09;56.80
60319;BME280;46163;52.306;5.634;2022-11-20T01:23:53;101237.75;;;14.08;56.37
60319;BME280;46163;52.306;5.634;2022-11-20T01:26:26;101236.31;;;14.05;56.33
60319;BME280;46163;52.306;5.634;2022-11-20T01:28:53;101223.34;;;14.02;56.60
60319;BME280;46163;52.306;5.634;2022-11-20T01:31:29;101217.00;;;13.97;56.53
60319;BME280;46163;52.306;5.634;2022-11-20T01:33:58;101219.25;;;14.00;56.40
60319;BME280;46163;52.306;5.634;2022-11-20T01:36:24;101222.34;;;13.97;56.34
60319;BME280;46163;52.306;5.634;2022-11-20T01:38:55;101210.22;;;13.94;56.32
60319;BME280;46163;52.306;5.634;2022-11-20T01:41:22;101202.41;;;13.93;56.31
60319;BME280;46163;52.306;5.634;2022-11-20T01:44:06;101204.69;;;13.89;56.33
60319;BME280;46163;52.306;5.634;2022-11-20T01:46:35;101200.38;;;13.88;56.63
60319;BME280;46163;52.306;5.634;2022-11-20T01:49:12;101205.13;;;13.86;56.67
60319;BME280;46163;52.306;5.634;2022-11-20T01:54:09;101201.25;;;13.82;56.61
60319;BME280;46163;52.306;5.634;2022-11-20T01:56:38;101196.06;;;13.80;56.20
60319;BME280;46163;52.306;5.634;2022-11-20T01:59:10;101192.81;;;13.78;56.51
60319;BME280;46163;52.306;5.634;2022-11-20T02:01:37;101170.84;;;13.63;56.28
60319;BME280;46163;52.306;5.634;2022-11-20T02:04:05;101199.63;;;13.74;56.40
60319;BME280;46163;52.306;5.634;2022-11-20T02:06:40;101199.00;;;13.72;56.12
60319;BME280;46163;52.306;5.634;2022-11-20T02:09:07;101197.56;;;13.70;56.63
60319;BME280;46163;52.306;5.634;2022-11-20T02:11:33;101198.59;;;13.69;56.09
60319;BME280;46163;52.306;5.634;2022-11-20T02:13:59;101193.47;;;13.67;56.52
60319;BME280;46163;52.306;5.634;2022-11-20T02:16:28;101191.84;;;13.66;56.25
60319;BME280;46163;52.306;5.634;2022-11-20T02:18:55;101189.56;;;13.63;56.35
60319;BME280;46163;52.306;5.634;2022-11-20T02:21:45;101183.00;;;13.59;56.39
60319;BME280;46163;52.306;5.634;2022-11-20T02:24:18;101183.00;;;13.59;56.72
60319;BME280;46163;52.306;5.634;2022-11-20T02:26:56;101203.00;;;13.56;56.30
60319;BME280;46163;52.306;5.634;2022-11-20T02:29:39;101201.34;;;13.55;56.30
60319;BME280;46163;52.306;5.634;2022-11-20T02:32:17;101198.47;;;13.50;56.44
60319;BME280;46163;52.306;5.634;2022-11-20T02:34:45;101202.78;;;13.51;56.49
60319;BME280;46163;52.306;5.634;2022-11-20T02:37:11;101195.19;;;13.48;56.38
60319;BME280;46163;52.306;5.634;2022-11-20T02:39:37;101204.25;;;13.47;56.14
60319;BME280;46163;52.306;5.634;2022-11-20T02:42:05;101199.31;;;13.44;56.30
60319;BME280;46163;52.306;5.634;2022-11-20T02:44:31;101190.47;;;13.44;56.54
60319;BME280;46163;52.306;5.634;2022-11-20T02:46:57;101192.31;;;13.43;56.38
60319;BME280;46163;52.306;5.634;2022-11-20T02:49:24;101186.38;;;13.41;56.50
60319;BME280;46163;52.306;5.634;2022-11-20T02:51:49;101191.13;;;13.39;56.26
60319;BME280;46163;52.306;5.634;2022-11-20T02:54:17;101184.13;;;13.38;56.38
60319;BME280;46163;52.306;5.634;2022-11-20T02:56:42;101195.81;;;13.37;56.27
60319;BME280;46163;52.306;5.634;2022-11-20T02:59:08;101189.06;;;13.35;56.64
60319;BME280;46163;52.306;5.634;2022-11-20T03:01:35;101182.28;;;13.32;56.52
60319;BME280;46163;52.306;5.634;2022-11-20T03:04:00;101179.00;;;13.30;56.16
60319;BME280;46163;52.306;5.634;2022-11-20T03:06:26;101176.94;;;13.25;56.60
60319;BME280;46163;52.306;5.634;2022-11-20T03:08:51;101178.38;;;13.28;56.45
60319;BME280;46163;52.306;5.634;2022-11-20T03:11:17;101168.72;;;13.27;56.49
60319;BME280;46163;52.306;5.634;2022-11-20T03:13:42;101175.09;;;13.26;56.12
60319;BME280;46163;52.306;5.634;2022-11-20T03:16:11;101169.16;;;13.24;56.56
60319;BME280;46163;52.306;5.634;2022-11-20T03:18:39;101166.69;;;13.22;56.44
60319;BME280;46163;52.306;5.634;2022-11-20T03:21:05;101157.41;;;13.18;56.50
60319;BME280;46163;52.306;5.634;2022-11-20T03:23:32;101155.56;;;13.19;56.63
60319;BME280;46163;52.306;5.634;2022-11-20T03:26:15;101150.41;;;13.17;56.28
60319;BME280;46163;52.306;5.634;2022-11-20T03:28:45;101149.81;;;13.15;56.38
60319;BME280;46163;52.306;5.634;2022-11-20T03:31:13;101152.72;;;13.14;56.53
60319;BME280;46163;52.306;5.634;2022-11-20T03:33:40;101141.38;;;13.12;56.53
60319;BME280;46163;52.306;5.634;2022-11-20T03:36:10;101154.97;;;13.10;56.42
60319;BME280;46163;52.306;5.634;2022-11-20T03:38:36;101149.81;;;13.09;56.17
60319;BME280;46163;52.306;5.634;2022-11-20T03:41:22;101138.53;;;13.07;56.64
60319;BME280;46163;52.306;5.634;2022-11-20T03:43:53;101136.91;;;13.06;56.29
60319;BME280;46163;52.306;5.634;2022-11-20T03:46:18;101128.47;;;13.02;56.33
60319;BME280;46163;52.306;5.634;2022-11-20T03:48:44;101121.09;;;13.04;56.24
60319;BME280;46163;52.306;5.634;2022-11-20T03:51:19;101130.94;;;13.04;56.18
60319;BME280;46163;52.306;5.634;2022-11-20T03:53:46;101128.28;;;13.04;56.33
60319;BME280;46163;52.306;5.634;2022-11-20T03:56:13;101124.78;;;13.03;56.70
60319;BME280;46163;52.306;5.634;2022-11-20T03:58:39;101119.22;;;13.05;56.24
60319;BME280;46163;52.306;5.634;2022-11-20T04:01:07;101125.19;;;13.07;56.33
60319;BME280;46163;52.306;5.634;2022-11-20T04:03:34;101125.78;;;13.09;55.90
60319;BME280;46163;52.306;5.634;2022-11-20T04:06:07;101125.78;;;13.09;56.41
60319;BME280;46163;52.306;5.634;2022-11-20T04:08:34;101121.03;;;13.11;56.47
60319;BME280;46163;52.306;5.634;2022-11-20T04:11:13;101112.00;;;13.12;56.58
60319;BME280;46163;52.306;5.634;2022-11-20T04:13:40;101113.66;;;13.19;56.41
60319;BME280;46163;52.306;5.634;2022-11-20T04:16:07;101118.38;;;13.24;56.43
60319;BME280;46163;52.306;5.634;2022-11-20T04:18:33;101119.16;;;13.31;55.99
60319;BME280;46163;52.306;5.634;2022-11-20T04:20:59;101119.97;;;13.38;56.03
60319;BME280;46163;52.306;5.634;2022-11-20T04:23:25;101111.09;;;13.44;55.71
60319;BME280;46163;52.306;5.634;2022-11-20T04:25:51;101119.06;;;13.51;55.90
60319;BME280;46163;52.306;5.634;2022-11-20T04:28:16;101115.34;;;13.58;55.42
60319;BME280;46163;52.306;5.634;2022-11-20T04:30:42;101109.56;;;13.62;55.38
60319;BME280;46163;52.306;5.634;2022-11-20T04:33:08;101122.69;;;13.70;55.36
60319;BME280;46163;52.306;5.634;2022-11-20T04:35:35;101126.16;;;13.77;54.98
60319;BME280;46163;52.306;5.634;2022-11-20T04:38:01;101127.16;;;13.82;54.88
60319;BME280;46163;52.306;5.634;2022-11-20T04:40:29;101112.06;;;13.88;54.66
60319;BME280;46163;52.306;5.634;2022-11-20T04:42:56;101122.75;;;13.95;54.37
60319;BME280;46163;52.306;5.634;2022-11-20T04:45:22;101113.88;;;14.01;54.69
60319;BME280;46163;52.306;5.634;2022-11-20T04:47:48;101121.22;;;14.05;54.34
60319;BME280;46163;52.306;5.634;2022-11-20T04:50:14;101118.72;;;14.10;54.52
60319;BME280;46163;52.306;5.634;2022-11-20T04:52:39;101114.16;;;14.18;54.51
60319;BME280;46163;52.306;5.634;2022-11-20T04:55:08;101113.25;;;14.24;54.20
60319;BME280;46163;52.306;5.634;2022-11-20T04:57:34;101115.53;;;14.27;53.95
60319;BME280;46163;52.306;5.634;2022-11-20T04:59:59;101117.31;;;14.33;53.91
60319;BME280;46163;52.306;5.634;2022-11-20T05:02:25;101108.84;;;14.36;53.86
60319;BME280;46163;52.306;5.634;2022-11-20T05:04:50;101106.94;;;14.43;53.64
60319;BME280;46163;52.306;5.634;2022-11-20T05:07:15;101099.91;;;14.49;53.88
60319;BME280;46163;52.306;5.634;2022-11-20T05:09:41;101097.63;;;14.52;53.41
60319;BME280;46163;52.306;5.634;2022-11-20T05:12:08;101092.41;;;14.57;53.24
60319;BME280;46163;52.306;5.634;2022-11-20T05:14:34;101069.41;;;14.50;53.12
60319;BME280;46163;52.306;5.634;2022-11-20T05:16:59;101081.66;;;14.64;53.37
60319;BME280;46163;52.306;5.634;2022-11-20T05:19:25;101079.94;;;14.69;53.09
60319;BME280;46163;52.306;5.634;2022-11-20T05:21:50;101085.66;;;14.73;52.86
60319;BME280;46163;52.306;5.634;2022-11-20T05:24:16;101088.53;;;14.78;52.90
60319;BME280;46163;52.306;5.634;2022-11-20T05:26:42;101076.53;;;14.81;52.83
60319;BME280;46163;52.306;5.634;2022-11-20T05:29:11;101084.09;;;14.84;52.42
60319;BME280;46163;52.306;5.634;2022-11-20T05:31:39;101065.88;;;14.74;52.88
60319;BME280;46163;52.306;5.634;2022-11-20T05:34:04;101094.19;;;14.88;52.70
60319;BME280;46163;52.306;5.634;2022-11-20T05:36:31;101072.28;;;14.91;52.46
60319;BME280;46163;52.306;5.634;2022-11-20T05:38:57;101066.25;;;14.96;52.49
60319;BME280;46163;52.306;5.634;2022-11-20T05:41:23;101063.94;;;14.99;52.42
60319;BME280;46163;52.306;5.634;2022-11-20T05:43:49;101065.34;;;15.02;52.40
60319;BME280;46163;52.306;5.634;2022-11-20T05:46:18;101063.88;;;15.06;52.16
60319;BME280;46163;52.306;5.634;2022-11-20T05:48:45;101058.50;;;15.06;52.19
60319;BME280;46163;52.306;5.634;2022-11-20T05:51:13;101066.31;;;15.08;52.16
60319;BME280;46163;52.306;5.634;2022-11-20T05:53:39;101059.69;;;15.10;52.05
60319;BME280;46163;52.306;5.634;2022-11-20T05:56:13;101066.47;;;15.13;52.20
60319;BME280;46163;52.306;5.634;2022-11-20T05:58:40;101071.63;;;15.14;52.16
60319;BME280;46163;52.306;5.634;2022-11-20T06:01:21;101069.28;;;15.18;52.24
60319;BME280;46163;52.306;5.634;2022-11-20T06:03:48;101073.41;;;15.20;52.08
60319;BME280;46163;52.306;5.634;2022-11-20T06:06:16;101076.66;;;15.22;51.94
60319;BME280;46163;52.306;5.634;2022-11-20T06:08:44;101079.13;;;15.24;51.90
60319;BME280;46163;52.306;5.634;2022-11-20T06:11:11;101077.84;;;15.26;51.80
60319;BME280;46163;52.306;5.634;2022-11-20T06:13:37;101074.56;;;15.24;51.66
60319;BME280;46163;52.306;5.634;2022-11-20T06:16:06;101086.69;;;15.27;51.68
60319;BME280;46163;52.306;5.634;2022-11-20T06:18:32;101090.81;;;15.30;51.57
60319;BME280;46163;52.306;5.634;2022-11-20T06:21:06;101088.94;;;15.30;51.73
60319;BME280;46163;52.306;5.634;2022-11-20T06:23:33;101089.53;;;15.32;51.58
60319;BME280;46163;52.306;5.634;2022-11-20T06:26:05;101082.78;;;15.30;51.54
60319;BME280;46163;52.306;5.634;2022-11-20T06:28:34;101091.75;;;15.35;51.72
60319;BME280;46163;52.306;5.634;2022-11-20T06:31:00;101090.72;;;15.36;51.48
60319;BME280;46163;52.306;5.634;2022-11-20T06:33:26;101087.81;;;15.38;51.50
60319;BME280;46163;52.306;5.634;2022-11-20T06:35:56;101085.72;;;15.40;51.50
60319;BME280;46163;52.306;5.634;2022-11-20T06:38:22;101094.38;;;15.42;51.44
60319;BME280;46163;52.306;5.634;2022-11-20T06:40:48;101085.28;;;15.43;51.46
60319;BME280;46163;52.306;5.634;2022-11-20T06:43:13;101094.72;;;15.45;51.51
60319;BME280;46163;52.306;5.634;2022-11-20T06:45:38;101089.97;;;15.47;51.37
60319;BME280;46163;52.306;5.634;2022-11-20T06:48:04;101088.09;;;15.48;51.28
60319;BME280;46163;52.306;5.634;2022-11-20T06:50:31;101087.06;;;15.49;51.24
60319;BME280;46163;52.306;5.634;2022-11-20T06:53:00;101093.00;;;15.51;51.14
60319;BME280;46163;52.306;5.634;2022-11-20T06:55:26;101095.69;;;15.51;51.18
60319;BME280;46163;52.306;5.634;2022-11-20T06:57:51;101086.59;;;15.52;51.32
60319;BME280;46163;52.306;5.634;2022-11-20T07:00:17;101091.72;;;15.53;51.29
60319;BME280;46163;52.306;5.634;2022-11-20T07:02:42;101083.47;;;15.55;51.11
60319;BME280;46163;52.306;5.634;2022-11-20T07:05:08;101083.25;;;15.57;51.20
60319;BME280;46163;52.306;5.634;2022-11-20T07:07:34;101086.50;;;15.59;50.96
60319;BME280;46163;52.306;5.634;2022-11-20T07:10:02;101083.00;;;15.58;51.01
60319;BME280;46163;52.306;5.634;2022-11-20T07:12:28;101079.06;;;15.61;50.91
60319;BME280;46163;52.306;5.634;2022-11-20T07:14:54;101078.63;;;15.64;50.87
60319;BME280;46163;52.306;5.634;2022-11-20T07:17:20;101067.69;;;15.65;50.89
60319;BME280;46163;52.306;5.634;2022-11-20T07:19:45;101066.84;;;15.65;50.80
60319;BME280;46163;52.306;5.634;2022-11-20T07:22:10;101067.69;;;15.65;50.97
60319;BME280;46163;52.306;5.634;2022-11-20T07:24:36;101062.31;;;15.65;50.79
60319;BME280;46163;52.306;5.634;2022-11-20T07:27:01;101063.72;;;15.68;50.93
60319;BME280;46163;52.306;5.634;2022-11-20T07:29:27;101059.75;;;15.70;50.72
60319;BME280;46163;52.306;5.634;2022-11-20T07:31:52;101061.59;;;15.70;50.77
60319;BME280;46163;52.306;5.634;2022-11-20T07:34:20;101057.63;;;15.72;50.79
60319;BME280;46163;52.306;5.634;2022-11-20T07:36:46;101055.81;;;15.73;50.69
60319;BME280;46163;52.306;5.634;2022-11-20T07:39:12;101044.59;;;15.76;50.66
60319;BME280;46163;52.306;5.634;2022-11-20T07:41:37;101049.72;;;15.77;50.50
60319;BME280;46163;52.306;5.634;2022-11-20T07:44:02;101050.31;;;15.79;50.70
60319;BME280;46163;52.306;5.634;2022-11-20T07:46:28;101043.69;;;15.82;50.57
60319;BME280;46163;52.306;5.634;2022-11-20T07:48:55;101044.28;;;15.84;50.68
60319;BME280;46163;52.306;5.634;2022-11-20T07:51:21;101055.00;;;15.84;50.51
60319;BME280;46163;52.306;5.634;2022-11-20T07:53:46;101046.72;;;15.86;50.52
60319;BME280;46163;52.306;5.634;2022-11-20T07:56:11;101048.94;;;15.89;50.57
60319;BME280;46163;52.306;5.634;2022-11-20T07:58:39;101050.56;;;15.90;50.59
60319;BME280;46163;52.306;5.634;2022-11-20T08:01:06;101052.22;;;15.91;50.44
60319;BME280;46163;52.306;5.634;2022-11-20T08:03:32;101052.56;;;15.94;50.61
60319;BME280;46163;52.306;5.634;2022-11-20T08:05:59;101045.34;;;15.95;50.65
60319;BME280;46163;52.306;5.634;2022-11-20T08:08:26;101048.59;;;15.97;50.48
60319;BME280;46163;52.306;5.634;2022-11-20T08:10:51;101055.59;;;15.98;50.32
60319;BME280;46163;52.306;5.634;2022-11-20T08:13:18;101055.16;;;16.01;50.49
60319;BME280;46163;52.306;5.634;2022-11-20T08:16:02;101048.16;;;16.00;50.36
60319;BME280;46163;52.306;5.634;2022-11-20T08:18:27;101046.88;;;16.02;50.33
60319;BME280;46163;52.306;5.634;2022-11-20T08:20:53;101043.94;;;16.04;50.58
60319;BME280;46163;52.306;5.634;2022-11-20T08:23:19;101044.09;;;16.09;50.42
60319;BME280;46163;52.306;5.634;2022-11-20T08:25:49;101036.03;;;16.09;50.29
60319;BME280;46163;52.306;5.634;2022-11-20T08:28:15;101037.66;;;16.10;50.45
60319;BME280;46163;52.306;5.634;2022-11-20T08:30:40;101040.09;;;16.11;50.43
60319;BME280;46163;52.306;5.634;2022-11-20T08:33:08;101032.88;;;16.12;50.33
60319;BME280;46163;52.306;5.634;2022-11-20T08:35:35;101029.72;;;16.15;50.16
60319;BME280;46163;52.306;5.634;2022-11-20T08:38:05;101026.56;;;16.18;50.39
60319;BME280;46163;52.306;5.634;2022-11-20T08:40:31;101019.34;;;16.19;50.26
60319;BME280;46163;52.306;5.634;2022-11-20T08:42:57;101023.41;;;16.21;50.38
60319;BME280;46163;52.306;5.634;2022-11-20T08:45:22;101018.41;;;16.25;50.26
60319;BME280;46163;52.306;5.634;2022-11-20T08:47:48;101013.03;;;16.25;50.22
60319;BME280;46163;52.306;5.634;2022-11-20T08:50:15;101016.88;;;16.29;50.31
60319;BME280;46163;52.306;5.634;2022-11-20T08:52:42;101016.63;;;16.30;50.23
60319;BME280;46163;52.306;5.634;2022-11-20T08:55:08;101018.28;;;16.31;50.25
60319;BME280;46163;52.306;5.634;2022-11-20T08:57:35;101019.69;;;16.34;50.38
60319;BME280;46163;52.306;5.634;2022-11-20T09:00:05;101018.63;;;16.35;50.18
60319;BME280;46163;52.306;5.634;2022-11-20T09:02:31;101020.84;;;16.38;50.32
60319;BME280;46163;52.306;5.634;2022-11-20T09:04:57;101016.06;;;16.40;50.27
60319;BME280;46163;52.306;5.634;2022-11-20T09:07:23;101019.34;;;16.42;50.36
60319;BME280;46163;52.306;5.634;2022-11-20T09:09:48;101021.31;;;16.47;50.22
60319;BME280;46163;52.306;5.634;2022-11-20T09:12:14;101010.31;;;16.48;50.32
60319;BME280;46163;52.306;5.634;2022-11-20T09:14:39;101011.75;;;16.51;50.27
60319;BME280;46163;52.306;5.634;2022-11-20T09:17:05;101010.69;;;16.52;50.06
60319;BME280;46163;52.306;5.634;2022-11-20T09:19:32;101004.59;;;16.56;50.08
60319;BME280;46163;52.306;5.634;2022-11-20T09:21:58;101007.03;;;16.58;50.27
60319;BME280;46163;52.306;5.634;2022-11-20T09:24:25;100994.78;;;16.62;50.17
60319;BME280;46163;52.306;5.634;2022-11-20T09:26:50;100997.47;;;16.62;50.21
60319;BME280;46163;52.306;5.634;2022-11-20T09:29:16;100997.78;;;16.65;50.17
60319;BME280;46163;52.306;5.634;2022-11-20T09:31:41;100983.31;;;16.66;50.03
60319;BME280;46163;52.306;5.634;2022-11-20T09:34:07;100975.88;;;16.69;50.03
60319;BME280;46163;52.306;5.634;2022-11-20T09:36:32;100975.63;;;16.70;50.07
60319;BME280;46163;52.306;5.634;2022-11-20T09:38:58;100980.53;;;16.73;50.02
60319;BME280;46163;52.306;5.634;2022-11-20T09:49:32;100976.78;;;16.74;49.71
60319;BME280;46163;52.306;5.634;2022-11-20T09:54:45;100976.06;;;16.79;49.99
60319;BME280;46163;52.306;5.634;2022-11-20T09:57:13;100970.47;;;16.80;49.98
60319;BME280;46163;52.306;5.634;2022-11-20T09:59:43;100943.00;;;16.66;50.16
60319;BME280;46163;52.306;5.634;2022-11-20T10:04:53;100947.41;;;16.84;50.29
60319;BME280;46163;52.306;5.634;2022-11-20T10:07:31;100954.19;;;16.87;50.30
60319;BME280;46163;52.306;5.634;2022-11-20T10:10:01;100935.03;;;16.83;50.12
60319;BME280;46163;52.306;5.634;2022-11-20T10:12:48;100941.91;;;16.91;50.19
60319;BME280;46163;52.306;5.634;2022-11-20T10:15:45;100949.25;;;16.95;50.08
60319;BME280;46163;52.306;5.634;2022-11-20T10:26:26;100937.31;;;17.03;50.19
60319;BME280;46163;52.306;5.634;2022-11-20T10:29:18;100937.88;;;17.05;50.05
60319;BME280;46163;52.306;5.634;2022-11-20T10:31:54;100933.88;;;17.08;49.86
60319;BME280;46163;52.306;5.634;2022-11-20T10:34:24;100927.44;;;17.09;50.10
60319;BME280;46163;52.306;5.634;2022-11-20T10:36:55;100935.06;;;17.12;50.11
60319;BME280;46163;52.306;5.634;2022-11-20T10:42:13;100916.06;;;17.18;49.93
60319;BME280;46163;52.306;5.634;2022-11-20T10:44:49;100910.22;;;17.21;49.96
60319;BME280;46163;52.306;5.634;2022-11-20T10:47:28;100907.28;;;17.23;49.97
60319;BME280;46163;52.306;5.634;2022-11-20T10:49:58;100913.47;;;17.23;50.25
60319;BME280;46163;52.306;5.634;2022-11-20T10:55:25;100907.94;;;17.30;50.40
60319;BME280;46163;52.306;5.634;2022-11-20T11:00:25;100887.78;;;17.33;50.49
60319;BME280;46163;52.306;5.634;2022-11-20T11:02:53;100876.78;;;17.34;50.30
60319;BME280;46163;52.306;5.634;2022-11-20T11:07:49;100888.34;;;17.35;50.22
60319;BME280;46163;52.306;5.634;2022-11-20T11:10:22;100884.59;;;17.36;49.88
60319;BME280;46163;52.306;5.634;2022-11-20T11:12:49;100885.41;;;17.36;49.91
60319;BME280;46163;52.306;5.634;2022-11-20T11:15:27;100867.19;;;17.38;49.96
60319;BME280;46163;52.306;5.634;2022-11-20T11:17:54;100862.38;;;17.40;49.00
60319;BME280;46163;52.306;5.634;2022-11-20T11:20:25;100856.72;;;17.42;48.21
60319;BME280;46163;52.306;5.634;2022-11-20T11:22:53;100854.28;;;17.40;48.06
60319;BME280;46163;52.306;5.634;2022-11-20T11:25:30;100855.34;;;17.39;47.88
60319;BME280;46163;52.306;5.634;2022-11-20T11:28:02;100847.28;;;17.39;47.64
60319;BME280;46163;52.306;5.634;2022-11-20T11:30:29;100859.34;;;17.37;47.33
60319;BME280;46163;52.306;5.634;2022-11-20T11:33:11;100855.25;;;17.34;47.07
60319;BME280;46163;52.306;5.634;2022-11-20T11:35:51;100844.75;;;17.33;47.07
60319;BME280;46163;52.306;5.634;2022-11-20T11:38:35;100828.88;;;17.31;46.38
60319;BME280;46163;52.306;5.634;2022-11-20T11:41:02;100835.38;;;17.35;46.48
60319;BME280;46163;52.306;5.634;2022-11-20T11:43:30;100828.13;;;17.36;46.58
60319;BME280;46163;52.306;5.634;2022-11-20T11:54:14;100818.56;;;17.28;47.29
60319;BME280;46163;52.306;5.634;2022-11-20T11:56:41;100816.94;;;17.27;47.39
60319;BME280;46163;52.306;5.634;2022-11-20T11:59:14;100779.56;;;17.09;47.61
60319;BME280;46163;52.306;5.634;2022-11-20T12:01:43;100795.94;;;17.24;47.42
60319;BME280;46163;52.306;5.634;2022-11-20T12:06:38;100789.75;;;17.23;47.39
60319;BME280;46163;52.306;5.634;2022-11-20T12:09:08;100781.69;;;17.23;46.79
60319;BME280;46163;52.306;5.634;2022-11-20T12:11:45;100774.41;;;17.24;46.78
60319;BME280;46163;52.306;5.634;2022-11-20T12:14:48;100768.72;;;17.20;46.72
60319;BME280;46163;52.306;5.634;2022-11-20T12:17:14;100767.31;;;17.18;46.74
60319;BME280;46163;52.306;5.634;2022-11-20T12:19:40;100758.69;;;17.16;47.76
60319;BME280;46163;52.306;5.634;2022-11-20T12:25:04;100749.50;;;17.12;48.42
60319;BME280;46163;52.306;5.634;2022-11-20T12:30:21;100736.63;;;17.14;48.76
60319;BME280;46163;52.306;5.634;2022-11-20T12:41:27;100739.97;;;17.21;48.96
60319;BME280;46163;52.306;5.634;2022-11-20T13:00:22;100707.88;;;17.36;49.23
60319;BME280;46163;52.306;5.634;2022-11-20T13:08:24;100695.50;;;17.35;49.41
60319;BME280;46163;52.306;5.634;2022-11-20T13:14:23;100684.25;;;17.38;49.54
60319;BME280;46163;52.306;5.634;2022-11-20T13:19:22;100661.97;;;17.43;49.02
60319;BME280;46163;52.306;5.634;2022-11-20T13:21:49;100655.53;;;17.44;49.30
60319;BME280;46163;52.306;5.634;2022-11-20T13:26:44;100627.88;;;17.48;49.26
60319;BME280;46163;52.306;5.634;2022-11-20T13:29:16;100631.38;;;17.49;49.23
60319;BME280;46163;52.306;5.634;2022-11-20T13:31:45;100615.25;;;17.49;49.23
60319;BME280;46163;52.306;5.634;2022-11-20T13:34:24;100615.53;;;17.52;49.43
60319;BME280;46163;52.306;5.634;2022-11-20T13:36:55;100612.59;;;17.54;49.34
60319;BME280;46163;52.306;5.634;2022-11-20T13:39:35;100607.22;;;17.54;49.33
60319;BME280;46163;52.306;5.634;2022-11-20T13:42:26;100604.03;;;17.57;48.95
60319;BME280;46163;52.306;5.634;2022-11-20T13:45:01;100608.66;;;17.62;49.10
60319;BME280;46163;52.306;5.634;2022-11-20T13:47:28;100587.88;;;17.57;49.27
60319;BME280;46163;52.306;5.634;2022-11-20T13:49:58;100585.19;;;17.57;49.51
60319;BME280;46163;52.306;5.634;2022-11-20T14:01:10;100567.53;;;17.66;51.40
60319;BME280;46163;52.306;5.634;2022-11-20T14:03:40;100568.41;;;17.72;51.64
60319;BME280;46163;52.306;5.634;2022-11-20T14:06:12;100561.47;;;17.76;50.91
60319;BME280;46163;52.306;5.634;2022-11-20T14:08:48;100561.75;;;17.79;50.90
60319;BME280;46163;52.306;5.634;2022-11-20T14:11:22;100568.53;;;17.82;50.04
60319;BME280;46163;52.306;5.634;2022-11-20T14:16:33;100564.78;;;17.88;49.73
60319;BME280;46163;52.306;5.634;2022-11-20T14:21:45;100549.78;;;17.92;49.59
60319;BME280;46163;52.306;5.634;2022-11-20T14:24:12;100541.69;;;17.92;49.35
60319;BME280;46163;52.306;5.634;2022-11-20T14:26:42;100544.38;;;17.92;49.40
60319;BME280;46163;52.306;5.634;2022-11-20T14:29:17;100522.25;;;17.85;49.35
60319;BME280;46163;52.306;5.634;2022-11-20T14:31:45;100540.09;;;17.96;49.31
60319;BME280;46163;52.306;5.634;2022-11-20T14:34:18;100549.56;;;17.99;49.22
60319;BME280;46163;52.306;5.634;2022-11-20T14:36:44;100529.84;;;17.93;49.16
60319;BME280;46163;52.306;5.634;2022-11-20T14:39:12;100540.91;;;17.97;49.27
60319;BME280;46163;52.306;5.634;2022-11-20T14:41:51;100551.19;;;18.00;49.39
60319;BME280;46163;52.306;5.634;2022-11-20T14:44:17;100535.84;;;18.00;49.54